KSPW/SPW METAR and TAF weather

Enter ICAO airport designator
Station Type Date Time Source
KSPW METAR 2019/06/26 04:53 UTC NOAA

KSPW 260453Z AUTO 11003KT 10SM CLR 17/13 A2997 RMK AO2 SLP143 T01670133


Station Type Date Time Source
KSPW Decoded METAR 2019/06/26 04:53 UTC NOAA

SPENCER MUNICIPAL AIRPORT, IA, United States (KSPW) 43-10N 95-13W 403M
Jun 26, 2019 - 12:53 AM EDT / 2019.06.26 0453 UTC
Wind: from the ESE (110 degrees) at 3 MPH (3 KT):0
Visibility: 10 mile(s):0
Sky conditions: clear
Temperature: 62.1 F (16.7 C)
Dew Point: 55.9 F (13.3 C)
Relative Humidity: 80%
Pressure (altimeter): 29.97 in. Hg (1014 hPa)
ob: KSPW 260453Z AUTO 11003KT 10SM CLR 17/13 A2997 RMK AO2 SLP143 T01670133
cycle: 5

Station Type Date Time Source
KSPW TAF UTC NOAA

Error!

Example: see airport list